Terminal Aerodrome Forecast
Issued by NWS Memphis, TN

Home | Current Version | Previous Version | Text Only | Print | Product List | Glossary On
Versions: 1 2 3 4 5 6 7 8 9 10 11 12 13 14
152
FTUS44 KMEG 272321
TAFMKL
TAF
KMKL 272321Z 2800/2824 VRB03KT P6SM VCSH SCT035 OVC090
      TEMPO 2800/2803 6SM -SHRA BKN035
     FM280300 16003KT 5SM BR BKN015 OVC035
     FM281100 22002KT 4SM -SHRA BR VCTS BKN010CB OVC025
     FM281500 23007KT 6SM BR VCTS BKN030CB OVC100
      TEMPO 2816/2820 4SM -TSRA SCT030 OVC045CB=

USA.gov is the U.S. government's official web portal to all federal, state and local government web resources and services.